createdAt,value
2024-01-07T00:00:04.263Z,-8.78
2024-01-07T00:05:08.697Z,-8.87
2024-01-07T00:10:11.964Z,-8.95
2024-01-07T00:15:15.129Z,-8.15
2024-01-07T00:20:18.337Z,-2.90
2024-01-07T00:25:21.576Z,0.14
2024-01-07T00:30:24.824Z,1.18
2024-01-07T00:35:27.961Z,1.69
2024-01-07T00:40:31.182Z,1.76
2024-01-07T00:45:34.233Z,1.78
2024-01-07T00:50:37.398Z,1.51
2024-01-07T00:55:40.510Z,1.77
2024-01-07T01:00:43.840Z,1.94
2024-01-07T01:05:47.258Z,2.21
2024-01-07T01:10:50.243Z,1.76
2024-01-07T01:15:53.915Z,2.04
2024-01-07T01:20:57.693Z,2.35
2024-01-07T01:26:00.805Z,2.86
2024-01-07T01:31:04.246Z,3.10
2024-01-07T01:36:08.450Z,2.76
2024-01-07T01:41:11.558Z,2.21
2024-01-07T01:46:15.293Z,2.49
2024-01-07T01:51:19.240Z,2.34
2024-01-07T01:56:23.972Z,2.51
2024-01-07T02:01:27.866Z,2.91
2024-01-07T02:06:31.608Z,2.15
2024-01-07T02:11:34.816Z,2.17
2024-01-07T02:16:37.921Z,2.11
2024-01-07T02:21:40.951Z,2.25
2024-01-07T02:26:44.143Z,2.21
2024-01-07T02:31:47.263Z,2.39
2024-01-07T02:36:50.529Z,2.04
2024-01-07T02:41:53.584Z,2.14
2024-01-07T02:46:56.582Z,1.92
2024-01-07T02:51:59.603Z,1.71
2024-01-07T02:57:02.835Z,1.44
2024-01-07T03:02:05.975Z,1.71
2024-01-07T03:07:09.267Z,1.66
2024-01-07T03:12:12.324Z,1.87
2024-01-07T03:17:18.438Z,1.53
2024-01-07T03:22:21.621Z,1.85
2024-01-07T03:27:24.766Z,1.94
2024-01-07T03:32:27.953Z,2.09
2024-01-07T03:37:30.958Z,2.05
2024-01-07T03:42:34.101Z,2.02
2024-01-07T03:47:37.137Z,2.00
2024-01-07T03:52:40.378Z,2.02
2024-01-07T03:57:43.399Z,2.20
2024-01-07T04:02:46.496Z,1.56
2024-01-07T04:07:49.708Z,1.29
2024-01-07T04:12:52.855Z,1.58
2024-01-07T04:17:56.090Z,1.04
2024-01-07T04:22:59.581Z,1.31
2024-01-07T04:28:02.791Z,1.38
2024-01-07T04:33:06.018Z,0.99
2024-01-07T04:38:09.899Z,1.12
2024-01-07T04:43:13.044Z,1.47
2024-01-07T04:48:16.435Z,0.46
2024-01-07T04:53:19.542Z,0.71
2024-01-07T04:58:22.538Z,-0.07
2024-01-07T05:03:25.737Z,-0.14
2024-01-07T05:08:29.742Z,0.46
2024-01-07T05:13:32.992Z,-0.02
2024-01-07T05:18:36.346Z,0.55
2024-01-07T05:23:41.056Z,0.77
2024-01-07T05:28:44.063Z,0.47
2024-01-07T05:33:47.335Z,0.59
2024-01-07T05:38:50.480Z,0.89
2024-01-07T05:43:53.592Z,0.83
2024-01-07T05:48:57.394Z,0.75
2024-01-07T05:54:00.633Z,0.62
2024-01-07T05:59:03.733Z,0.08
2024-01-07T06:04:06.859Z,-0.03
2024-01-07T06:09:10.159Z,-0.09
2024-01-07T06:14:13.675Z,-0.53
2024-01-07T06:19:20.615Z,-0.64
2024-01-07T06:24:23.786Z,-0.77
2024-01-07T06:29:26.789Z,-1.41
2024-01-07T06:34:29.989Z,-1.16
2024-01-07T06:39:35.812Z,-1.19
2024-01-07T06:44:38.880Z,-0.93
2024-01-07T06:49:41.956Z,-1.38
2024-01-07T06:54:45.154Z,-1.02
2024-01-07T06:59:48.412Z,-1.42
2024-01-07T07:04:52.805Z,-1.26
2024-01-07T07:09:56.176Z,-1.08
2024-01-07T07:14:59.401Z,-1.03
2024-01-07T07:20:02.671Z,-0.35
2024-01-07T07:25:06.899Z,-0.49
2024-01-07T07:30:10.178Z,-0.73
2024-01-07T07:35:13.557Z,0.29
2024-01-07T07:40:16.749Z,0.67
2024-01-07T07:45:19.887Z,1.06
2024-01-07T07:50:23.130Z,1.35
2024-01-07T07:55:26.501Z,2.22
2024-01-07T08:00:29.860Z,2.98
2024-01-07T08:05:33.261Z,3.06
2024-01-07T08:10:36.669Z,2.49
2024-01-07T08:15:39.798Z,2.15
2024-01-07T08:20:43.100Z,2.07
2024-01-07T08:25:46.813Z,1.84
2024-01-07T08:30:50.943Z,0.67
2024-01-07T08:35:54.053Z,0.15
2024-01-07T08:40:57.161Z,-0.69
2024-01-07T08:46:00.326Z,-1.62
2024-01-07T08:51:04.564Z,-2.31
2024-01-07T08:56:08.229Z,-1.29
2024-01-07T09:01:11.564Z,-1.73
2024-01-07T09:06:15.122Z,-1.88
2024-01-07T09:11:21.141Z,-1.85
2024-01-07T09:16:24.368Z,-1.76
2024-01-07T09:21:27.962Z,-0.57
2024-01-07T09:26:31.184Z,-1.16
2024-01-07T09:31:34.488Z,-0.84
2024-01-07T09:36:38.089Z,0.18
2024-01-07T09:41:41.629Z,0.39
2024-01-07T09:46:50.897Z,-0.42
2024-01-07T09:52:00.926Z,-0.34
2024-01-07T09:57:05.640Z,-0.37
2024-01-07T10:02:09.221Z,0.70
2024-01-07T10:07:12.377Z,0.06
2024-01-07T10:12:16.716Z,0.06
2024-01-07T10:17:20.145Z,0.74
2024-01-07T10:22:23.625Z,0.77
2024-01-07T10:27:27.014Z,0.61
2024-01-07T10:32:30.583Z,0.94
2024-01-07T10:37:33.849Z,2.23
2024-01-07T10:42:39.628Z,2.39
2024-01-07T10:47:45.639Z,1.71
2024-01-07T10:52:58.755Z,1.56
2024-01-07T10:58:04.411Z,0.68
2024-01-07T11:03:21.000Z,0.87
2024-01-07T11:08:35.790Z,0.66
2024-01-07T11:13:40.426Z,0.04
2024-01-07T11:18:51.042Z,0.75
2024-01-07T11:23:57.857Z,0.38
2024-01-07T11:29:01.982Z,0.12
2024-01-07T11:34:05.367Z,0.97
2024-01-07T11:39:10.766Z,0.97
2024-01-07T11:44:16.037Z,1.05
2024-01-07T11:49:19.287Z,0.96
2024-01-07T11:54:22.439Z,1.40
2024-01-07T11:59:25.552Z,1.05
2024-01-07T12:04:29.818Z,1.17
2024-01-07T12:09:33.360Z,0.71
2024-01-07T12:14:36.824Z,0.47
2024-01-07T12:19:41.847Z,0.21
2024-01-07T12:24:45.410Z,-0.39
2024-01-07T12:29:56.450Z,-0.18
2024-01-07T12:35:00.734Z,-0.38
2024-01-07T12:40:05.524Z,-0.27
2024-01-07T12:45:12.803Z,-0.46
2024-01-07T12:50:17.870Z,-0.12
2024-01-07T12:55:21.074Z,-0.20
2024-01-07T13:00:24.532Z,-0.14
2024-01-07T13:05:28.065Z,0.20
2024-01-07T13:10:31.399Z,0.25
2024-01-07T13:15:34.532Z,-0.30
2024-01-07T13:20:39.355Z,0.11
2024-01-07T13:25:42.463Z,-0.98
2024-01-07T13:30:45.753Z,-1.74
2024-01-07T13:35:48.909Z,-1.39
2024-01-07T13:40:52.806Z,-1.49
2024-01-07T13:45:56.185Z,-1.21
2024-01-07T13:50:59.546Z,-1.42
2024-01-07T13:56:02.610Z,-0.71
2024-01-07T14:01:07.193Z,0.03
2024-01-07T14:06:10.308Z,-0.01
2024-01-07T14:11:13.431Z,-0.01
2024-01-07T14:16:16.731Z,0.36
2024-01-07T14:21:20.372Z,0.43
2024-01-07T14:26:25.118Z,0.48
2024-01-07T14:31:28.476Z,-0.25
2024-01-07T14:36:32.072Z,-0.03
2024-01-07T14:41:35.152Z,-0.13
2024-01-07T14:46:38.586Z,-0.18
2024-01-07T14:51:41.912Z,0.14
2024-01-07T14:56:45.191Z,0.02
2024-01-07T15:01:48.293Z,-0.03
2024-01-07T15:06:51.548Z,-0.39
2024-01-07T15:11:56.395Z,-0.91
2024-01-07T15:17:00.302Z,-0.69
2024-01-07T15:22:04.629Z,-0.70
2024-01-07T15:27:08.041Z,-0.81
2024-01-07T15:32:11.535Z,-1.03
2024-01-07T15:37:14.787Z,-0.39
2024-01-07T15:42:18.285Z,-0.33
2024-01-07T15:47:21.949Z,-0.31
2024-01-07T15:52:25.176Z,-0.21
2024-01-07T15:57:28.437Z,0.15
2024-01-07T16:02:31.830Z,-0.60
2024-01-07T16:07:35.167Z,-0.64
2024-01-07T16:12:38.764Z,0.25
2024-01-07T16:17:43.890Z,0.12
2024-01-07T16:22:47.176Z,-0.10
2024-01-07T16:27:50.547Z,-0.13
2024-01-07T16:32:53.854Z,-0.14
2024-01-07T16:37:57.205Z,0.28
2024-01-07T16:43:03.979Z,-0.27
2024-01-07T16:48:07.658Z,0.09
2024-01-07T16:53:10.927Z,-0.23
2024-01-07T16:58:15.102Z,-0.56
2024-01-07T17:03:18.136Z,-0.87
2024-01-07T17:08:21.429Z,-1.35
2024-01-07T17:13:24.549Z,-0.96
2024-01-07T17:18:27.770Z,-1.21
2024-01-07T17:23:31.238Z,-1.09
2024-01-07T17:28:34.434Z,-0.99
2024-01-07T17:33:38.184Z,-0.69
2024-01-07T17:38:41.386Z,-1.02
2024-01-07T17:43:44.836Z,-1.08
2024-01-07T17:48:48.232Z,-0.81
2024-01-07T17:53:51.772Z,-1.08
2024-01-07T17:58:55.120Z,-1.35
2024-01-07T18:03:58.354Z,-1.54
2024-01-07T18:09:01.521Z,-1.65
2024-01-07T18:14:04.913Z,-1.48
2024-01-07T18:19:08.013Z,-0.84
2024-01-07T18:24:10.986Z,-0.69
2024-01-07T18:29:14.316Z,-0.54
2024-01-07T18:34:17.585Z,-0.14
2024-01-07T18:39:20.641Z,0.05
2024-01-07T18:44:26.916Z,-0.28
2024-01-07T18:49:30.247Z,-0.83
2024-01-07T18:54:33.686Z,-0.87
2024-01-07T18:59:37.278Z,-1.72
2024-01-07T19:04:40.891Z,-0.82
2024-01-07T19:09:43.993Z,-1.14
2024-01-07T19:14:47.100Z,-0.69
2024-01-07T19:19:51.365Z,-0.21
2024-01-07T19:24:54.863Z,-0.36
2024-01-07T19:29:57.837Z,-0.49
2024-01-07T19:35:01.008Z,-1.51
2024-01-07T19:40:04.817Z,-1.78
2024-01-07T19:45:08.693Z,-1.76
2024-01-07T19:50:11.962Z,-0.97
2024-01-07T19:55:15.252Z,-1.00
2024-01-07T20:00:19.448Z,-1.09
2024-01-07T20:05:22.615Z,-0.67
2024-01-07T20:10:25.920Z,-0.87
2024-01-07T20:15:29.187Z,-0.97
2024-01-07T20:20:35.714Z,-0.60
2024-01-07T20:25:39.856Z,-1.18
2024-01-07T20:30:43.168Z,-1.47
2024-01-07T20:35:46.355Z,-0.64
2024-01-07T20:40:49.497Z,-1.51
2024-01-07T20:45:53.406Z,-1.20
2024-01-07T20:50:56.525Z,-1.21
2024-01-07T20:56:00.342Z,-1.14
2024-01-07T21:01:03.939Z,-1.07
2024-01-07T21:06:07.367Z,-2.04
2024-01-07T21:11:10.569Z,-1.98
2024-01-07T21:16:13.806Z,-2.46
2024-01-07T21:21:17.217Z,-1.97
2024-01-07T21:26:20.369Z,-1.82
2024-01-07T21:31:23.746Z,-1.83
2024-01-07T21:36:26.859Z,-2.50
2024-01-07T21:41:29.863Z,-2.38
2024-01-07T21:46:35.452Z,-2.35
2024-01-07T21:51:38.561Z,-1.92
2024-01-07T21:56:41.760Z,-1.76
2024-01-07T22:01:45.020Z,-2.08
2024-01-07T22:06:48.333Z,-2.36
2024-01-07T22:11:51.597Z,-1.72
2024-01-07T22:16:54.925Z,-1.97
2024-01-07T22:22:00.049Z,-1.66
2024-01-07T22:27:04.232Z,-1.68
2024-01-07T22:32:07.459Z,-1.98
2024-01-07T22:37:10.714Z,-1.50
2024-01-07T22:42:13.827Z,-1.16
2024-01-07T22:47:17.118Z,-1.67
2024-01-07T22:52:21.336Z,-1.16
2024-01-07T22:57:26.065Z,-1.98
2024-01-07T23:02:29.281Z,-2.22
2024-01-07T23:07:32.442Z,-2.07
2024-01-07T23:12:35.655Z,-2.33
2024-01-07T23:17:39.046Z,-3.56
2024-01-07T23:22:42.233Z,-4.21
2024-01-07T23:27:45.494Z,-3.41
2024-01-07T23:32:48.663Z,-3.19
2024-01-07T23:37:51.953Z,-2.87
2024-01-07T23:42:55.126Z,-2.87
2024-01-07T23:47:58.270Z,-2.73
2024-01-07T23:53:01.454Z,-2.94
2024-01-07T23:58:04.963Z,-2.79
